createdAt,value
2017-04-17T00:00:34.714Z,4.35
2017-04-17T00:01:35.092Z,4.36
2017-04-17T00:02:35.460Z,4.26
2017-04-17T00:03:35.865Z,4.22
2017-04-17T00:04:36.257Z,4.17
2017-04-17T00:05:36.655Z,4.15
2017-04-17T00:06:37.046Z,4.1
2017-04-17T00:07:37.435Z,3.97
2017-04-17T00:08:37.834Z,3.92
2017-04-17T00:09:38.232Z,3.89
2017-04-17T00:10:38.633Z,3.85
2017-04-17T00:11:39.029Z,3.74
2017-04-17T00:12:39.425Z,3.63
2017-04-17T00:13:39.827Z,3.61
2017-04-17T00:14:40.224Z,3.53
2017-04-17T00:15:40.617Z,3.58
2017-04-17T00:16:41.063Z,3.53
2017-04-17T00:17:41.503Z,3.57
2017-04-17T00:18:41.458Z,3.54
2017-04-17T00:19:41.980Z,3.46
2017-04-17T00:20:42.386Z,3.51
2017-04-17T00:21:42.786Z,3.48
2017-04-17T00:22:43.182Z,3.48
2017-04-17T00:23:43.577Z,3.43
2017-04-17T00:24:43.974Z,3.45
2017-04-17T00:25:44.373Z,3.43
2017-04-17T00:26:44.784Z,3.37
2017-04-17T00:27:44.786Z,3.37
2017-04-17T00:28:45.191Z,3.37
2017-04-17T00:29:45.586Z,3.34
2017-04-17T00:30:45.980Z,3.35
2017-04-17T00:31:46.382Z,3.23
2017-04-17T00:32:46.782Z,3.3
2017-04-17T00:33:47.182Z,3.29
2017-04-17T00:34:47.579Z,3.2
2017-04-17T00:35:47.972Z,3.19
2017-04-17T00:36:48.357Z,3.21
2017-04-17T00:37:48.760Z,3.2
2017-04-17T00:38:49.138Z,3.23
2017-04-17T00:39:49.522Z,3.13
2017-04-17T00:40:49.911Z,3.19
2017-04-17T00:41:50.290Z,3.19
2017-04-17T00:42:50.676Z,3.14
2017-04-17T00:43:51.073Z,3.06
2017-04-17T00:44:51.663Z,3.16
2017-04-17T00:45:52.052Z,3.2
2017-04-17T00:46:52.453Z,3.11
2017-04-17T00:47:52.891Z,3.27
2017-04-17T00:48:53.293Z,3.35
2017-04-17T00:49:53.681Z,3.39
2017-04-17T00:50:54.056Z,3.39
2017-04-17T00:51:54.466Z,3.48
2017-04-17T00:52:54.858Z,3.54
2017-04-17T00:53:55.300Z,3.54
2017-04-17T00:54:55.691Z,3.56
2017-04-17T00:55:55.724Z,3.64
2017-04-17T00:56:56.173Z,3.64
2017-04-17T00:57:56.562Z,3.72
2017-04-17T00:58:56.963Z,3.76
2017-04-17T00:59:57.357Z,3.66
2017-04-17T01:00:58.158Z,3.61
2017-04-17T01:01:57.966Z,3.56
2017-04-17T01:02:58.362Z,3.43
2017-04-17T01:03:58.932Z,3.4
2017-04-17T01:04:58.775Z,3.4
2017-04-17T01:05:59.182Z,3.3
2017-04-17T01:06:59.593Z,3.32
2017-04-17T01:07:59.981Z,3.32
2017-04-17T01:09:00.385Z,3.29
2017-04-17T01:10:00.782Z,3.24
2017-04-17T01:11:01.164Z,3.26
2017-04-17T01:12:01.546Z,3.19
2017-04-17T01:13:01.935Z,3.26
2017-04-17T01:14:02.347Z,3.32
2017-04-17T01:15:02.353Z,3.29
2017-04-17T01:16:02.751Z,3.3
2017-04-17T01:17:03.158Z,3.34
2017-04-17T01:18:03.556Z,3.3
2017-04-17T01:19:03.960Z,3.42
2017-04-17T01:20:04.373Z,3.49
2017-04-17T01:21:04.763Z,3.46
2017-04-17T01:22:05.167Z,3.67
2017-04-17T01:23:05.565Z,3.6
2017-04-17T01:24:05.973Z,3.76
2017-04-17T01:25:06.527Z,3.78
2017-04-17T01:26:06.375Z,3.76
2017-04-17T01:27:06.771Z,3.72
2017-04-17T01:28:07.172Z,3.75
2017-04-17T01:29:07.565Z,3.64
2017-04-17T01:30:08.309Z,3.67
2017-04-17T01:31:07.967Z,3.76
2017-04-17T01:32:08.628Z,3.72
2017-04-17T01:33:08.363Z,3.64
2017-04-17T01:34:08.766Z,3.71
2017-04-17T01:35:09.376Z,3.6
2017-04-17T01:36:09.763Z,3.76
2017-04-17T01:37:10.126Z,3.74
2017-04-17T01:38:10.547Z,3.72
2017-04-17T01:39:10.940Z,3.84
2017-04-17T01:40:11.337Z,3.92
2017-04-17T01:41:11.725Z,3.9
2017-04-17T01:42:12.181Z,4.02
2017-04-17T01:43:12.131Z,4.03
2017-04-17T01:44:12.529Z,4.12
2017-04-17T01:45:12.939Z,4.17
2017-04-17T01:46:13.337Z,4.18
2017-04-17T01:47:13.735Z,4.26
2017-04-17T01:48:14.132Z,4.28
2017-04-17T01:49:14.508Z,4.32
2017-04-17T01:50:14.900Z,4.36
2017-04-17T01:51:15.366Z,4.36
2017-04-17T01:52:15.764Z,4.33
2017-04-17T01:53:16.181Z,4.46
2017-04-17T01:54:16.565Z,4.36
2017-04-17T01:55:17.061Z,4.47
2017-04-17T01:56:17.437Z,4.35
2017-04-17T01:57:17.840Z,4.33
2017-04-17T01:58:18.239Z,4.22
2017-04-17T01:59:18.639Z,4.33
2017-04-17T02:00:19.192Z,4.26
2017-04-17T02:01:19.599Z,4.21
2017-04-17T02:02:20.022Z,4.3
2017-04-17T02:03:20.475Z,4.33
2017-04-17T02:04:20.895Z,4.36
2017-04-17T02:05:21.291Z,4.33
2017-04-17T02:06:21.681Z,4.4
2017-04-17T02:07:22.075Z,4.42
2017-04-17T02:08:22.472Z,4.47
2017-04-17T02:09:22.873Z,4.46
2017-04-17T02:10:23.470Z,4.4
2017-04-17T02:11:23.860Z,4.5
2017-04-17T02:12:24.271Z,4.54
2017-04-17T02:13:24.674Z,4.61
2017-04-17T02:14:25.066Z,4.6
2017-04-17T02:15:25.471Z,4.58
2017-04-17T02:16:25.864Z,4.57
2017-04-17T02:17:26.265Z,4.54
2017-04-17T02:18:26.686Z,4.68
2017-04-17T02:20:40.962Z,4.53
2017-04-17T02:21:41.346Z,4.56
2017-04-17T02:22:41.732Z,4.58
2017-04-17T02:23:42.143Z,4.53
2017-04-17T02:24:42.542Z,4.51
2017-04-17T02:25:42.942Z,4.5
2017-04-17T02:26:43.318Z,4.44
2017-04-17T02:27:43.717Z,4.42
2017-04-17T02:28:44.185Z,4.42
2017-04-17T02:29:44.587Z,4.42
2017-04-17T02:30:44.987Z,4.47
2017-04-17T02:31:45.380Z,4.47
2017-04-17T02:32:45.786Z,4.38
2017-04-17T02:33:46.188Z,4.46
2017-04-17T02:34:46.589Z,4.42
2017-04-17T02:35:47.018Z,4.46
2017-04-17T02:36:47.438Z,4.33
2017-04-17T02:37:47.803Z,4.32
2017-04-17T02:38:48.189Z,4.33
2017-04-17T02:39:48.588Z,4.33
2017-04-17T02:40:49.141Z,4.32
2017-04-17T02:41:48.994Z,4.39
2017-04-17T02:42:49.022Z,4.39
2017-04-17T02:43:49.412Z,4.38
2017-04-17T02:44:49.805Z,4.33
2017-04-17T02:45:50.228Z,4.32
2017-04-17T02:46:50.617Z,4.29
2017-04-17T02:47:51.008Z,4.29
2017-04-17T02:48:51.407Z,4.18
2017-04-17T02:49:51.801Z,4.22
2017-04-17T02:50:52.201Z,4.17
2017-04-17T02:51:52.208Z,4.14
2017-04-17T02:52:52.592Z,4.14
2017-04-17T02:53:52.998Z,4.2
2017-04-17T02:54:53.396Z,4.17
2017-04-17T02:55:53.802Z,4.17
2017-04-17T02:56:54.195Z,4.21
2017-04-17T02:57:54.580Z,4.14
2017-04-17T02:58:54.982Z,4.11
2017-04-17T02:59:55.384Z,4.12
2017-04-17T03:00:55.805Z,4.15
2017-04-17T03:01:56.211Z,4.1
2017-04-17T03:02:56.592Z,4.04
2017-04-17T03:03:56.970Z,4.08
2017-04-17T03:04:57.385Z,4.04
2017-04-17T03:05:57.782Z,4.04
2017-04-17T03:06:58.163Z,4.1
2017-04-17T03:07:58.555Z,4.11
2017-04-17T03:08:58.940Z,4.04
2017-04-17T03:09:59.339Z,4.04
2017-04-17T03:10:59.741Z,4.08
2017-04-17T03:12:00.146Z,4.15
2017-04-17T03:13:00.541Z,4.15
2017-04-17T03:14:00.932Z,4.15
2017-04-17T03:15:01.348Z,4.15
2017-04-17T03:16:01.786Z,4.15
2017-04-17T03:17:02.187Z,4.12
2017-04-17T03:18:02.569Z,4.21
2017-04-17T03:19:03.165Z,4.18
2017-04-17T03:20:02.989Z,4.21
2017-04-17T03:21:03.369Z,4.26
2017-04-17T03:22:03.765Z,4.26
2017-04-17T03:23:04.165Z,4.29
2017-04-17T03:24:04.557Z,4.3
2017-04-17T03:25:04.954Z,4.32
2017-04-17T03:26:05.362Z,4.32
2017-04-17T03:27:05.759Z,4.29
2017-04-17T03:28:06.219Z,4.35
2017-04-17T03:29:06.612Z,4.35
2017-04-17T03:30:07.012Z,4.39
2017-04-17T03:31:07.389Z,4.35
2017-04-17T03:32:07.771Z,4.35
2017-04-17T03:33:08.176Z,4.35
2017-04-17T03:34:08.574Z,4.38
2017-04-17T03:35:08.977Z,4.42
2017-04-17T03:36:09.369Z,4.35
2017-04-17T03:37:09.775Z,4.35
2017-04-17T03:38:10.202Z,4.38
2017-04-17T03:39:10.605Z,4.35
2017-04-17T03:40:11.027Z,4.38
2017-04-17T03:41:11.425Z,4.38
2017-04-17T03:42:11.819Z,4.32
2017-04-17T03:43:12.212Z,4.36
2017-04-17T03:44:12.621Z,4.24
2017-04-17T03:45:13.027Z,4.17
2017-04-17T03:46:13.424Z,4.14
2017-04-17T03:47:13.815Z,4.02
2017-04-17T03:48:14.234Z,3.99
2017-04-17T03:49:14.633Z,3.97
2017-04-17T03:50:15.016Z,3.9
2017-04-17T03:51:15.397Z,3.86
2017-04-17T03:52:15.797Z,3.84
2017-04-17T03:53:16.186Z,3.74
2017-04-17T03:54:16.563Z,3.76
2017-04-17T03:55:16.947Z,3.82
2017-04-17T03:56:17.363Z,3.67
2017-04-17T03:57:17.793Z,3.6
2017-04-17T03:58:18.195Z,3.58
2017-04-17T03:59:18.603Z,3.45
2017-04-17T04:00:19.091Z,3.37
2017-04-17T04:01:19.068Z,3.42
2017-04-17T04:02:19.515Z,3.35
2017-04-17T04:03:19.951Z,3.37
2017-04-17T04:04:20.416Z,3.34
2017-04-17T04:05:20.876Z,3.24
2017-04-17T04:06:21.357Z,3.2
2017-04-17T04:07:21.821Z,3.23
2017-04-17T04:08:22.287Z,3.24
2017-04-17T04:09:22.732Z,3.21
2017-04-17T04:10:23.184Z,3.17
2017-04-17T04:11:23.618Z,3.21
2017-04-17T04:12:24.080Z,3.14
2017-04-17T04:13:24.527Z,3.26
2017-04-17T04:14:24.982Z,3.27
2017-04-17T04:15:25.650Z,3.24
2017-04-17T04:16:25.534Z,3.32
2017-04-17T04:17:26.024Z,3.42
2017-04-17T04:18:26.487Z,3.35
2017-04-17T04:19:26.924Z,3.43
2017-04-17T04:20:27.372Z,3.4
2017-04-17T04:21:27.840Z,3.35
2017-04-17T04:22:28.304Z,3.32
2017-04-17T04:23:28.753Z,3.29
2017-04-17T04:24:29.308Z,3.17
2017-04-17T04:25:29.782Z,3.34
2017-04-17T04:26:30.228Z,3.3
2017-04-17T04:27:30.694Z,3.29
2017-04-17T04:28:31.134Z,3.3
2017-04-17T04:29:31.610Z,3.3
2017-04-17T04:30:32.076Z,3.27
2017-04-17T04:31:32.518Z,3.27
2017-04-17T04:32:33.006Z,3.29
2017-04-17T04:33:33.473Z,3.29
2017-04-17T04:34:33.962Z,3.23
2017-04-17T04:35:34.426Z,3.29
2017-04-17T04:36:34.880Z,3.21
2017-04-17T04:37:35.346Z,3.16
2017-04-17T04:38:35.817Z,3.19
2017-04-17T04:39:36.302Z,3.19
2017-04-17T04:40:36.774Z,3.2
2017-04-17T04:41:37.237Z,3.2
2017-04-17T04:42:37.689Z,3.13
2017-04-17T04:43:38.142Z,3.11
2017-04-17T04:44:38.617Z,3.2
2017-04-17T04:45:39.053Z,3.16
2017-04-17T04:46:40.115Z,3.19
2017-04-17T04:47:40.049Z,3.21
2017-04-17T04:48:40.059Z,3.17
2017-04-17T04:49:40.106Z,3.27
2017-04-17T04:50:40.133Z,3.3
2017-04-17T04:51:40.171Z,3.19
2017-04-17T04:52:40.199Z,3.26
2017-04-17T04:53:40.218Z,3.3
2017-04-17T04:54:40.227Z,3.19
2017-04-17T04:55:40.251Z,3.27
2017-04-17T04:56:40.297Z,3.32
2017-04-17T04:57:40.336Z,3.39
2017-04-17T04:58:40.353Z,3.34
2017-04-17T04:59:40.326Z,3.34
2017-04-17T05:00:40.568Z,3.34
2017-04-17T05:01:40.431Z,3.32
2017-04-17T05:02:40.455Z,3.37
2017-04-17T05:03:40.457Z,3.42
2017-04-17T05:04:40.503Z,3.46
2017-04-17T05:05:40.531Z,3.45
2017-04-17T05:06:40.563Z,3.39
2017-04-17T05:07:40.583Z,3.51
2017-04-17T05:08:40.620Z,3.56
2017-04-17T05:09:40.804Z,3.6
2017-04-17T05:10:40.626Z,3.66
2017-04-17T05:11:40.701Z,3.67
2017-04-17T05:12:40.717Z,3.72
2017-04-17T05:13:40.754Z,3.76
2017-04-17T05:14:40.763Z,3.69
2017-04-17T05:15:40.804Z,3.75
2017-04-17T05:16:40.821Z,3.79
2017-04-17T05:17:40.855Z,3.84
2017-04-17T05:18:41.076Z,3.86
2017-04-17T05:19:40.908Z,3.86
2017-04-17T05:20:40.917Z,3.93
2017-04-17T05:21:40.948Z,3.97
2017-04-17T05:22:41.009Z,4.18
2017-04-17T05:23:41.016Z,4.21
2017-04-17T05:24:41.062Z,4.32
2017-04-17T05:25:41.064Z,4.46
2017-04-17T05:26:41.079Z,4.61
2017-04-17T05:27:41.120Z,4.78
2017-04-17T05:28:41.167Z,4.78
2017-04-17T05:29:41.184Z,4.83
2017-04-17T05:30:41.198Z,4.87
2017-04-17T05:31:41.228Z,5.02
2017-04-17T05:32:41.267Z,5.45
2017-04-17T05:33:41.278Z,5.62
2017-04-17T05:34:41.305Z,5.87
2017-04-17T05:35:41.367Z,6.2
2017-04-17T05:36:41.363Z,6.43
2017-04-17T05:37:41.412Z,6.6
2017-04-17T05:38:41.446Z,6.68
2017-04-17T05:39:41.485Z,6.83
2017-04-17T05:40:41.463Z,7.05
2017-04-17T05:41:41.509Z,7.29
2017-04-17T05:42:41.536Z,7.37
2017-04-17T05:43:41.563Z,7.51
2017-04-17T05:44:41.598Z,7.4
2017-04-17T05:45:41.611Z,7.44
2017-04-17T05:46:41.658Z,7.48
2017-04-17T05:47:41.684Z,7.55
2017-04-17T05:48:41.722Z,7.67
2017-04-17T05:49:41.739Z,7.85
2017-04-17T05:50:41.768Z,7.67
2017-04-17T05:51:41.800Z,7.58
2017-04-17T05:52:41.835Z,7.63
2017-04-17T05:53:41.864Z,7.95
2017-04-17T05:54:41.871Z,7.98
2017-04-17T05:55:41.944Z,8.29
2017-04-17T05:56:41.955Z,8.6
2017-04-17T05:57:41.966Z,9.27
2017-04-17T05:58:42.015Z,9.44
2017-04-17T05:59:42.042Z,9.62
2017-04-17T06:00:42.049Z,9.62
2017-04-17T06:01:42.078Z,9.85
2017-04-17T06:02:42.116Z,9.85
2017-04-17T06:03:42.159Z,9.64
2017-04-17T06:04:42.210Z,9.53
2017-04-17T06:05:42.213Z,9.9
2017-04-17T06:06:42.252Z,10.18
2017-04-17T06:07:42.270Z,10.44
2017-04-17T06:08:42.313Z,11.13
2017-04-17T06:09:42.338Z,11.94
2017-04-17T06:10:42.385Z,11.89
2017-04-17T06:11:42.401Z,11.6
2017-04-17T06:12:42.433Z,11.13
2017-04-17T06:13:42.468Z,11.02
2017-04-17T06:14:42.487Z,10.9
2017-04-17T06:15:42.532Z,11.05
2017-04-17T06:16:42.554Z,10.98
2017-04-17T06:17:42.583Z,10.52
2017-04-17T06:18:42.604Z,10.55
2017-04-17T06:19:42.655Z,10.47
2017-04-17T06:20:42.648Z,10.07
2017-04-17T06:21:42.704Z,10
2017-04-17T06:22:42.732Z,10.59
2017-04-17T06:23:42.767Z,11.67
2017-04-17T06:24:42.800Z,12.58
2017-04-17T06:25:43.028Z,13.25
2017-04-17T06:26:42.854Z,13.51
2017-04-17T06:27:43.030Z,13.69
2017-04-17T06:28:43.005Z,13.84
2017-04-17T06:29:42.958Z,13.81
2017-04-17T06:30:42.966Z,14.28
2017-04-17T06:31:43.021Z,15.07
2017-04-17T06:32:43.050Z,16.06
2017-04-17T06:33:43.086Z,16.82
2017-04-17T06:34:43.090Z,16.81
2017-04-17T06:35:43.139Z,16.42
2017-04-17T06:36:43.172Z,16.7
2017-04-17T06:37:43.213Z,17.42
2017-04-17T06:38:43.251Z,18.26
2017-04-17T06:39:43.270Z,19.09
2017-04-17T06:40:43.315Z,19.74
2017-04-17T06:41:43.351Z,20.32
2017-04-17T06:42:43.354Z,20.64
2017-04-17T06:43:43.424Z,20.81
2017-04-17T06:44:43.448Z,20.93
2017-04-17T06:45:43.467Z,21.23
2017-04-17T06:46:43.515Z,21.34
2017-04-17T06:47:43.559Z,21.74
2017-04-17T06:48:43.583Z,22.04
2017-04-17T06:49:43.601Z,21.76
2017-04-17T06:50:43.663Z,21.23
2017-04-17T06:51:43.744Z,21.04
2017-04-17T06:52:43.724Z,21.36
2017-04-17T06:53:43.766Z,21.18
2017-04-17T06:54:43.797Z,21.09
2017-04-17T06:55:43.842Z,20.75
2017-04-17T06:56:43.895Z,20.56
2017-04-17T06:57:43.892Z,20.96
2017-04-17T06:58:43.943Z,21.41
2017-04-17T06:59:43.973Z,21.28
2017-04-17T07:00:43.990Z,21.34
2017-04-17T07:01:44.052Z,21.31
2017-04-17T07:02:44.083Z,20.51
2017-04-17T07:03:44.118Z,19.65
2017-04-17T07:04:44.156Z,19.49
2017-04-17T07:05:44.179Z,19.72
2017-04-17T07:06:44.228Z,19.3
2017-04-17T07:07:44.266Z,18.93
2017-04-17T07:08:44.297Z,19.61
2017-04-17T07:09:44.346Z,20.57
2017-04-17T07:10:44.381Z,21.7
2017-04-17T07:11:44.391Z,22.34
2017-04-17T07:12:44.444Z,22.6
2017-04-17T07:13:44.487Z,23.38
2017-04-17T07:14:44.510Z,24.08
2017-04-17T07:15:44.555Z,24.89
2017-04-17T07:16:44.589Z,25.56
2017-04-17T07:17:44.638Z,25.54
2017-04-17T07:18:44.674Z,24.86
2017-04-17T07:19:44.695Z,24.39
2017-04-17T07:20:44.857Z,23.18
2017-04-17T07:21:44.780Z,21.8
2017-04-17T07:22:44.797Z,20.49
2017-04-17T07:23:44.838Z,19.34
2017-04-17T07:24:44.894Z,18.27
2017-04-17T07:25:44.926Z,17.47
2017-04-17T07:26:44.966Z,16.82
2017-04-17T07:27:44.999Z,16.33
2017-04-17T07:28:45.024Z,16.16
2017-04-17T07:29:45.073Z,16.45
2017-04-17T07:30:45.107Z,16.99
2017-04-17T07:31:45.147Z,17.25
2017-04-17T07:32:45.192Z,17.22
2017-04-17T07:33:45.208Z,16.97
2017-04-17T07:34:45.265Z,16.72
2017-04-17T07:35:45.273Z,16.42
2017-04-17T07:36:45.331Z,16.34
2017-04-17T07:37:45.417Z,15.91
2017-04-17T07:38:45.399Z,15.31
2017-04-17T07:39:45.434Z,14.71
2017-04-17T07:40:45.471Z,14.66
2017-04-17T07:41:45.487Z,14.71
2017-04-17T07:42:45.539Z,15.13
2017-04-17T07:43:45.559Z,16.76
2017-04-17T07:44:45.601Z,17.99
2017-04-17T07:45:45.640Z,18.45
2017-04-17T07:46:45.687Z,18.26
2017-04-17T07:47:45.703Z,17.6
2017-04-17T07:48:45.753Z,17.1
2017-04-17T07:49:45.798Z,16.82
2017-04-17T07:50:45.806Z,17.38
2017-04-17T07:51:45.858Z,18.6
2017-04-17T07:52:45.904Z,20.07
2017-04-17T07:53:45.926Z,20.46
2017-04-17T07:54:45.967Z,20.37
2017-04-17T07:55:46.002Z,20.07
2017-04-17T07:56:46.036Z,20.41
2017-04-17T07:57:46.071Z,21.48
2017-04-17T07:58:46.111Z,22.27
2017-04-17T07:59:46.127Z,21.94
2017-04-17T08:00:46.187Z,21.03
2017-04-17T08:01:46.216Z,19.79
2017-04-17T08:02:46.258Z,18.6
2017-04-17T08:03:46.337Z,17.66
2017-04-17T08:04:46.325Z,16.85
2017-04-17T08:05:46.368Z,16.87
2017-04-17T08:06:46.385Z,18.05
2017-04-17T08:07:46.438Z,19.92
2017-04-17T08:08:46.474Z,21.97
2017-04-17T08:09:46.498Z,23.18
2017-04-17T08:10:46.545Z,23.85
2017-04-17T08:11:46.593Z,24.56
2017-04-17T08:12:46.722Z,25.74
2017-04-17T08:13:46.660Z,26.53
2017-04-17T08:14:46.697Z,26.16
2017-04-17T08:15:46.739Z,24.8
2017-04-17T08:16:46.792Z,23.18
2017-04-17T08:17:46.807Z,21.52
2017-04-17T08:18:46.856Z,19.98
2017-04-17T08:19:46.895Z,18.51
2017-04-17T08:20:46.922Z,17.47
2017-04-17T08:21:46.996Z,16.91
2017-04-17T08:22:46.998Z,17.39
2017-04-17T08:23:47.062Z,18.49
2017-04-17T08:24:47.085Z,19.28
2017-04-17T08:25:47.103Z,20.32
2017-04-17T08:26:47.137Z,21.71
2017-04-17T08:27:47.204Z,23.67
2017-04-17T08:28:47.218Z,25.3
2017-04-17T08:29:47.277Z,26.44
2017-04-17T08:30:47.303Z,27.01
2017-04-17T08:31:47.342Z,27.09
2017-04-17T08:32:47.393Z,27.08
2017-04-17T08:33:47.424Z,27.09
2017-04-17T08:34:47.457Z,26.17
2017-04-17T08:35:47.477Z,24.86
2017-04-17T08:36:47.513Z,23.63
2017-04-17T08:37:47.591Z,22.46
2017-04-17T08:38:47.621Z,21.58
2017-04-17T08:39:47.667Z,20.78
2017-04-17T08:40:47.715Z,19.79
2017-04-17T08:41:47.737Z,18.71
2017-04-17T08:42:47.788Z,17.62
2017-04-17T08:43:47.822Z,16.84
2017-04-17T08:44:47.869Z,16.21
2017-04-17T08:45:47.896Z,15.63
2017-04-17T08:46:47.938Z,15.15
2017-04-17T08:47:47.975Z,14.79
2017-04-17T08:48:47.988Z,14.77
2017-04-17T08:49:48.048Z,14.53
2017-04-17T08:50:48.085Z,14.39
2017-04-17T08:51:48.116Z,15.19
2017-04-17T08:52:48.165Z,17.24
2017-04-17T08:53:48.196Z,19.7
2017-04-17T08:54:48.227Z,22.08
2017-04-17T08:55:48.366Z,24.4
2017-04-17T08:56:48.287Z,26.49
2017-04-17T08:57:48.351Z,28.2
2017-04-17T08:58:48.386Z,29.47
2017-04-17T08:59:48.424Z,29.82
2017-04-17T09:00:48.492Z,29.67
2017-04-17T09:01:48.507Z,28.72
2017-04-17T09:02:48.538Z,26.74
2017-04-17T09:03:48.578Z,24.52
2017-04-17T09:04:48.918Z,22.6
2017-04-17T09:05:48.664Z,21.11
2017-04-17T09:06:48.698Z,19.83
2017-04-17T09:07:48.745Z,18.9
2017-04-17T09:08:48.786Z,18.16
2017-04-17T09:09:48.819Z,17.42
2017-04-17T09:10:48.857Z,16.82
2017-04-17T09:11:48.898Z,16.02
2017-04-17T09:12:49.004Z,15.18
2017-04-17T09:13:48.980Z,14.57
2017-04-17T09:14:49.004Z,13.87
2017-04-17T09:15:49.048Z,13.37
2017-04-17T09:16:49.092Z,12.81
2017-04-17T09:17:49.123Z,12.61
2017-04-17T09:18:49.153Z,12.37
2017-04-17T09:19:49.198Z,12.18
2017-04-17T09:20:49.222Z,11.97
2017-04-17T09:21:49.256Z,11.82
2017-04-17T09:22:49.303Z,11.64
2017-04-17T09:23:49.329Z,11.61
2017-04-17T09:24:49.381Z,11.61
2017-04-17T09:25:49.691Z,11.56
2017-04-17T09:26:49.433Z,11.66
2017-04-17T09:27:49.473Z,11.66
2017-04-17T09:28:49.513Z,12.28
2017-04-17T09:29:49.523Z,14.53
2017-04-17T09:30:49.666Z,16.9
2017-04-17T09:31:49.605Z,18.71
2017-04-17T09:32:49.647Z,19.87
2017-04-17T09:33:49.686Z,20.32
2017-04-17T09:34:49.714Z,20.08
2017-04-17T09:35:49.739Z,19.83
2017-04-17T09:36:49.787Z,19.78
2017-04-17T09:37:50.027Z,20.53
2017-04-17T09:38:49.845Z,21.94
2017-04-17T09:39:49.898Z,23.59
2017-04-17T09:40:49.928Z,24.89
2017-04-17T09:41:49.954Z,26.35
2017-04-17T09:42:50.005Z,27.53
2017-04-17T09:43:50.053Z,28.55
2017-04-17T09:44:50.055Z,29.13
2017-04-17T09:45:50.126Z,29.13
2017-04-17T09:46:50.385Z,29.21
2017-04-17T09:47:50.193Z,29.54
2017-04-17T09:48:50.233Z,30.04
2017-04-17T09:49:50.272Z,30.44
2017-04-17T09:50:50.494Z,30.73
2017-04-17T09:51:50.375Z,30.75
2017-04-17T09:52:50.399Z,30.49
2017-04-17T09:53:50.451Z,30.09
2017-04-17T09:54:50.506Z,29.65
2017-04-17T09:55:50.546Z,28.46
2017-04-17T09:56:50.557Z,26.23
2017-04-17T09:57:50.617Z,24.94
2017-04-17T09:58:50.653Z,24.96
2017-04-17T09:59:50.915Z,25.23
2017-04-17T10:00:52.637Z,25.57
2017-04-17T10:01:50.791Z,26.12
2017-04-17T10:02:50.825Z,26.75
2017-04-17T10:03:50.882Z,27.57
2017-04-17T10:04:50.899Z,28.41
2017-04-17T10:05:50.943Z,29.01
2017-04-17T10:06:50.979Z,29.61
2017-04-17T10:07:51.032Z,29.95
2017-04-17T10:08:51.069Z,29.63
2017-04-17T10:09:51.122Z,27.81
2017-04-17T10:10:51.161Z,26.91
2017-04-17T10:11:51.202Z,26.6
2017-04-17T10:12:51.215Z,25.71
2017-04-17T10:13:51.293Z,24.44
2017-04-17T10:14:51.329Z,22.92
2017-04-17T10:15:51.674Z,21.59
2017-04-17T10:16:51.397Z,20.01
2017-04-17T10:17:51.451Z,18.89
2017-04-17T10:18:51.488Z,17.74
2017-04-17T10:19:51.519Z,16.91
2017-04-17T10:20:51.722Z,16.14
2017-04-17T10:21:51.622Z,15.49
2017-04-17T10:22:51.648Z,15.01
2017-04-17T10:23:51.685Z,14.61
2017-04-17T10:24:51.732Z,14.09
2017-04-17T10:25:51.912Z,13.81
2017-04-17T10:26:51.794Z,13.5
2017-04-17T10:27:51.816Z,13.09
2017-04-17T10:28:51.852Z,12.74
2017-04-17T10:29:51.914Z,12.55
2017-04-17T10:30:51.916Z,12.41
2017-04-17T10:31:51.979Z,12.43
2017-04-17T10:32:51.973Z,12.62
2017-04-17T10:33:52.023Z,12.83
2017-04-17T10:34:52.087Z,13.14
2017-04-17T10:35:52.286Z,13.53
2017-04-17T10:36:52.161Z,14.03
2017-04-17T10:37:52.481Z,14.98
2017-04-17T10:38:52.231Z,16.1
2017-04-17T10:39:52.257Z,17.15
2017-04-17T10:40:52.301Z,17.86
2017-04-17T10:41:52.347Z,18.56
2017-04-17T10:42:52.350Z,19.12
2017-04-17T10:43:52.402Z,19.85
2017-04-17T10:44:52.433Z,20.68
2017-04-17T10:45:52.657Z,21.83
2017-04-17T10:46:56.943Z,23.37
2017-04-17T10:47:52.544Z,24.52
2017-04-17T10:48:52.568Z,25.74
2017-04-17T10:49:52.610Z,26.54
2017-04-17T10:50:52.644Z,26.87
2017-04-17T10:51:52.673Z,26.5
2017-04-17T10:52:52.706Z,26.56
2017-04-17T10:53:52.749Z,26.56
2017-04-17T10:54:52.770Z,26.71
2017-04-17T10:55:52.810Z,27.04
2017-04-17T10:56:52.843Z,27.38
2017-04-17T10:57:52.886Z,27.53
2017-04-17T10:58:52.904Z,27.65
2017-04-17T10:59:52.951Z,27.93
2017-04-17T11:00:52.998Z,28.05
2017-04-17T11:01:53.015Z,27.99
2017-04-17T11:02:53.093Z,28.02
2017-04-17T11:03:53.092Z,28.14
2017-04-17T11:04:53.116Z,28.28
2017-04-17T11:05:53.148Z,28.05
2017-04-17T11:06:53.184Z,27.26
2017-04-17T11:07:53.201Z,26.97
2017-04-17T11:08:53.247Z,26.93
2017-04-17T11:09:53.289Z,26.53
2017-04-17T11:10:53.368Z,26.19
2017-04-17T11:11:53.332Z,26
2017-04-17T11:12:53.389Z,25.66
2017-04-17T11:13:53.429Z,25.3
2017-04-17T11:14:53.443Z,24.87
2017-04-17T11:15:53.493Z,24.26
2017-04-17T11:16:53.535Z,23.42
2017-04-17T11:17:53.548Z,22.26
2017-04-17T11:18:53.605Z,21.25
2017-04-17T11:19:53.865Z,20.1
2017-04-17T11:20:53.642Z,19.07
2017-04-17T11:21:53.696Z,18.2
2017-04-17T11:22:53.731Z,17.3
2017-04-17T11:23:53.742Z,16.34
2017-04-17T11:24:53.796Z,15.75
2017-04-17T11:25:53.826Z,14.98
2017-04-17T11:26:53.863Z,14.21
2017-04-17T11:27:53.904Z,13.63
2017-04-17T11:28:53.930Z,13.07
2017-04-17T11:29:53.942Z,12.58
2017-04-17T11:30:53.967Z,12.2
2017-04-17T11:31:54.031Z,11.85
2017-04-17T11:32:54.047Z,11.68
2017-04-17T11:33:54.100Z,11.38
2017-04-17T11:34:54.138Z,11.16
2017-04-17T11:35:54.141Z,11.08
2017-04-17T11:36:54.361Z,10.92
2017-04-17T11:37:54.231Z,10.73
2017-04-17T11:38:54.269Z,10.57
2017-04-17T11:39:54.292Z,10.49
2017-04-17T11:40:54.320Z,10.54
2017-04-17T11:41:54.333Z,10.35
2017-04-17T11:42:54.389Z,10.47
2017-04-17T11:43:54.421Z,10.35
2017-04-17T11:44:54.450Z,10.36
2017-04-17T11:45:54.485Z,10.36
2017-04-17T11:46:54.521Z,10.23
2017-04-17T11:47:54.556Z,10.25
2017-04-17T11:48:54.567Z,10.18
2017-04-17T11:49:54.610Z,10.25
2017-04-17T11:50:54.630Z,10.31
2017-04-17T11:51:54.682Z,10.41
2017-04-17T11:52:54.701Z,10.67
2017-04-17T11:53:54.739Z,10.98
2017-04-17T11:54:54.762Z,11.23
2017-04-17T11:55:54.832Z,11.63
2017-04-17T11:56:54.814Z,11.91
2017-04-17T11:57:54.828Z,12.43
2017-04-17T11:58:54.896Z,12.71
2017-04-17T11:59:54.932Z,12.84
2017-04-17T12:00:54.959Z,13.06
2017-04-17T12:01:54.966Z,13.09
2017-04-17T12:02:55.021Z,13.17
2017-04-17T12:03:55.057Z,13.36
2017-04-17T12:04:55.082Z,13.5
2017-04-17T12:05:55.088Z,13.55
2017-04-17T12:06:55.156Z,13.31
2017-04-17T12:07:55.184Z,13.17
2017-04-17T12:08:55.217Z,12.99
2017-04-17T12:09:55.221Z,12.78
2017-04-17T12:10:55.275Z,12.56
2017-04-17T12:11:55.288Z,12.45
2017-04-17T12:12:55.340Z,12.28
2017-04-17T12:13:55.351Z,12.1
2017-04-17T12:14:55.394Z,12.13
2017-04-17T12:15:55.429Z,12.11
2017-04-17T12:16:55.463Z,12.22
2017-04-17T12:17:55.494Z,12.36
2017-04-17T12:18:55.525Z,12.48
2017-04-17T12:19:55.568Z,12.56
2017-04-17T12:20:55.593Z,12.53
2017-04-17T12:21:55.608Z,12.65
2017-04-17T12:22:55.668Z,12.66
2017-04-17T12:23:55.656Z,12.59
2017-04-17T12:24:55.722Z,12.63
2017-04-17T12:25:55.745Z,12.58
2017-04-17T12:26:55.769Z,12.59
2017-04-17T12:27:55.818Z,12.63
2017-04-17T12:28:55.851Z,12.69
2017-04-17T12:29:55.878Z,12.84
2017-04-17T12:30:55.913Z,12.94
2017-04-17T12:31:55.940Z,12.77
2017-04-17T12:32:55.972Z,12.53
2017-04-17T12:33:56.009Z,12.28
2017-04-17T12:34:56.043Z,11.94
2017-04-17T12:35:56.056Z,11.6
2017-04-17T12:36:56.107Z,11.2
2017-04-17T12:37:56.142Z,10.87
2017-04-17T12:38:56.168Z,10.59
2017-04-17T12:39:56.195Z,10.41
2017-04-17T12:40:56.234Z,10.32
2017-04-17T12:41:56.260Z,10.07
2017-04-17T12:42:56.278Z,9.92
2017-04-17T12:43:56.350Z,9.85
2017-04-17T12:44:56.365Z,9.78
2017-04-17T12:45:56.392Z,9.88
2017-04-17T12:46:56.428Z,9.78
2017-04-17T12:47:56.453Z,9.81
2017-04-17T12:48:56.465Z,9.84
2017-04-17T12:49:56.496Z,9.77
2017-04-17T12:50:56.543Z,9.85
2017-04-17T12:51:56.729Z,9.85
2017-04-17T12:52:56.608Z,9.95
2017-04-17T12:53:56.629Z,9.95
2017-04-17T12:54:56.662Z,9.93
2017-04-17T12:55:56.697Z,10
2017-04-17T12:56:56.737Z,10.15
2017-04-17T12:57:56.766Z,10.17
2017-04-17T12:58:56.790Z,10.23
2017-04-17T12:59:56.828Z,10.42
2017-04-17T13:00:57.141Z,10.49
2017-04-17T13:01:56.894Z,10.66
2017-04-17T13:02:56.918Z,10.87
2017-04-17T13:03:56.937Z,11.09
2017-04-17T13:04:56.975Z,11.06
2017-04-17T13:05:56.997Z,11.06
2017-04-17T13:06:57.045Z,11.13
2017-04-17T13:07:57.073Z,11.06
2017-04-17T13:08:57.103Z,11.13
2017-04-17T13:09:57.136Z,11.2
2017-04-17T13:10:57.173Z,10.97